Time;durP1;ratioP1;P1;durP2;ratioP2;P2;SDS_P1;SDS_P2;PMS_P1;PMS_P2;Temp;Humidity;BMP_temperature;BMP_pressure;BME280_temperature;BME280_humidity;BME280_pressure;Samples;Min_cycle;Max_cycle;Signal;HPM_P1;HPM_P2
2023/01/19 00:00:32;;;;;;;12.75;9.60;;;;;;;-146.25;86.74;52485.81;2078752;28;39866;-79
2023/01/19 00:01:34;;;;;;;15.18;10.10;;;;;;;-146.25;86.21;52493.91;2078897;28;35261;-79
2023/01/19 00:02:36;;;;;;;14.10;10.05;;;;;;;-146.25;86.39;52489.84;2087826;28;38419;-79
2023/01/19 00:03:38;;;;;;;20.88;9.77;;;;;;;-146.25;86.62;52500.00;2087202;28;43203;-80
2023/01/19 00:04:40;;;;;;;13.77;9.73;;;;;;;-146.25;86.55;52532.44;2087370;28;38513;-80
2023/01/19 00:05:43;;;;;;;15.85;10.77;;;;;;;-146.25;86.62;52502.03;2088467;28;37845;-80
2023/01/19 00:06:45;;;;;;;17.30;10.35;;;;;;;-146.25;86.57;52477.69;2072554;28;20141;-80
2023/01/19 00:07:47;;;;;;;17.42;10.02;;;;;;;-146.25;86.46;52447.28;2056790;28;20090;-80
2023/01/19 00:08:49;;;;;;;14.75;10.07;;;;;;;-146.25;86.29;52465.53;2073191;28;20177;-80
2023/01/19 00:09:51;;;;;;;17.17;10.55;;;;;;;-146.25;86.29;52497.97;2089280;28;20076;-81
2023/01/19 00:10:53;;;;;;;13.80;9.90;;;;;;;-146.25;86.49;52473.63;2081139;28;20160;-81
2023/01/19 00:11:55;;;;;;;13.38;9.82;;;;;;;-146.25;85.77;52489.84;2080967;28;20038;-81
2023/01/19 00:12:57;;;;;;;13.85;9.57;;;;;;;-146.25;86.05;52495.94;2089554;28;20755;-81
2023/01/19 00:13:59;;;;;;;16.20;10.23;;;;;;;-146.25;86.27;52493.91;2080696;28;20937;-81
2023/01/19 00:15:01;;;;;;;11.77;9.50;;;;;;;-146.25;86.39;52510.13;2081312;28;20133;-81
2023/01/19 00:16:04;;;;;;;14.27;9.52;;;;;;;-146.25;86.62;52433.06;2087997;28;42180;-82
2023/01/19 00:17:06;;;;;;;14.68;9.70;;;;;;;-146.25;86.04;52512.16;2089214;28;20199;-81
2023/01/19 00:18:08;;;;;;;15.18;10.30;;;;;;;-146.25;86.24;52514.19;2088991;28;22082;-82
2023/01/19 00:19:11;;;;;;;19.00;9.55;;;;;;;-146.25;86.29;52469.56;2089045;28;22556;-82
2023/01/19 00:20:14;;;;;;;17.05;10.40;;;;;;;-146.25;86.27;52502.03;2080401;28;20091;-82
2023/01/19 00:21:16;;;;;;;15.02;10.02;;;;;;;-146.25;86.75;52471.59;2081246;28;20904;-82
2023/01/19 00:22:18;;;;;;;12.52;9.65;;;;;;;-146.25;86.91;52473.63;2088755;28;20164;-82
2023/01/19 00:23:20;;;;;;;15.70;10.38;;;;;;;-146.25;87.27;52485.81;2072788;28;20158;-82
2023/01/19 00:24:22;;;;;;;14.98;10.10;;;;;;;-146.25;86.81;52528.38;2073175;28;20204;-82
2023/01/19 00:25:23;;;;;;;15.95;9.75;;;;;;;-146.25;87.39;52485.81;2079973;28;38053;-82
2023/01/19 00:26:25;;;;;;;16.95;9.98;;;;;;;-146.25;87.44;52504.03;2081041;28;20030;-82
2023/01/19 00:27:29;;;;;;;12.20;9.45;;;;;;;-146.25;87.50;52497.97;2081217;28;20111;-83
2023/01/19 00:28:31;;;;;;;16.45;10.00;;;;;;;-146.25;87.14;52487.81;2072724;28;20046;-81
2023/01/19 00:29:33;;;;;;;16.02;10.40;;;;;;;-146.25;87.88;52479.72;2072748;28;20156;-83
2023/01/19 00:30:36;;;;;;;17.50;10.00;;;;;;;-146.25;87.51;52485.81;2072754;28;20859;-80
2023/01/19 00:31:38;;;;;;;14.80;10.32;;;;;;;-146.25;88.32;52489.84;2080627;28;20094;-83
2023/01/19 00:32:40;;;;;;;14.75;10.07;;;;;;;-146.25;87.72;52449.31;2080069;28;42932;-83
2023/01/19 00:33:42;;;;;;;16.23;10.85;;;;;;;-146.25;88.01;52473.63;2089185;28;20384;-83
2023/01/19 00:34:48;;;;;;;16.35;10.18;;;;;;;-146.25;88.48;52441.19;2088729;28;20991;-83
2023/01/19 00:35:51;;;;;;;17.65;10.15;;;;;;;-146.25;88.25;52441.19;2089899;28;20041;-83
2023/01/19 00:36:55;;;;;;;16.02;10.88;;;;;;;-146.25;88.40;52522.28;2088299;28;24271;-83
2023/01/19 00:37:58;;;;;;;20.13;11.00;;;;;;;-146.25;87.97;52461.47;2089130;28;20053;-83
2023/01/19 00:39:00;;;;;;;16.50;10.80;;;;;;;-146.25;88.13;52475.66;2087963;28;34360;-83
2023/01/19 00:40:02;;;;;;;14.90;10.82;;;;;;;-146.25;88.18;52487.81;2080810;28;20140;-83
2023/01/19 00:41:04;;;;;;;18.10;10.45;;;;;;;-146.25;87.99;52475.66;2080030;28;38175;-83
2023/01/19 00:43:31;;;;;;;15.43;11.05;;;;;;;-146.25;88.26;52457.41;2088379;28;40967;-83
2023/01/19 00:44:32;;;;;;;17.65;10.70;;;;;;;-146.25;88.22;52453.34;2080886;28;20048;-83
2023/01/19 00:45:34;;;;;;;15.50;11.10;;;;;;;-146.25;87.66;52479.72;2079908;28;40786;-83
2023/01/19 00:46:37;;;;;;;17.67;10.80;;;;;;;-146.25;88.19;52495.94;2079704;28;38117;-84
2023/01/19 00:47:39;;;;;;;13.23;10.45;;;;;;;-146.25;87.78;52453.34;2080624;28;20085;-83
2023/01/19 00:48:45;;;;;;;21.38;11.63;;;;;;;-146.25;87.86;52473.63;2088799;28;42731;-83
2023/01/19 00:49:47;;;;;;;16.33;10.65;;;;;;;-146.25;88.28;52495.94;2088868;28;39578;-83
2023/01/19 00:50:48;;;;;;;14.98;10.98;;;;;;;-146.25;88.20;52508.09;2088989;28;36595;-83
2023/01/19 00:51:52;;;;;;;18.27;11.65;;;;;;;-146.25;88.58;52489.84;2088613;28;41366;-84
2023/01/19 00:52:56;;;;;;;18.63;12.55;;;;;;;-146.25;88.56;52471.59;2089279;28;20050;-83
2023/01/19 00:54:03;;;;;;;16.70;11.75;;;;;;;-146.25;88.14;52489.84;2080946;28;20034;-83
2023/01/19 00:55:07;;;;;;;20.48;11.63;;;;;;;-146.25;89.18;52493.91;2072716;28;35756;-83
2023/01/19 00:56:09;;;;;;;14.60;10.82;;;;;;;-146.25;88.63;52481.75;2080349;28;39782;-83
2023/01/19 00:57:11;;;;;;;18.08;11.98;;;;;;;-146.25;88.59;52477.69;2087838;28;41030;-84
2023/01/19 00:58:13;;;;;;;18.27;11.40;;;;;;;-146.25;88.94;52502.03;2089255;28;25479;-84
2023/01/19 00:59:14;;;;;;;16.83;11.90;;;;;;;-146.25;88.99;52479.72;2088632;28;41616;-83
2023/01/19 01:00:20;;;;;;;19.05;11.40;;;;;;;-146.25;88.53;52459.44;2088898;28;36596;-84
2023/01/19 01:01:22;;;;;;;17.92;11.93;;;;;;;-146.25;88.81;52481.75;2079859;28;40299;-85
2023/01/19 01:02:24;;;;;;;15.38;11.43;;;;;;;-146.25;88.86;52465.53;2080616;28;40207;-84
2023/01/19 01:03:28;;;;;;;18.90;12.45;;;;;;;-146.25;89.25;52475.66;2088515;28;38374;-84
2023/01/19 01:04:30;;;;;;;17.70;12.07;;;;;;;-146.25;89.16;52493.91;2088304;28;40270;-84
2023/01/19 01:05:31;;;;;;;15.80;11.77;;;;;;;-146.25;88.75;52489.84;2088421;28;40871;-83
2023/01/19 01:06:35;;;;;;;14.30;11.43;;;;;;;-146.25;88.58;52479.72;2079996;28;36124;-84
2023/01/19 01:07:39;;;;;;;19.40;11.93;;;;;;;-146.25;89.21;52479.72;2080055;28;43686;-84
2023/01/19 01:08:41;;;;;;;15.05;11.65;;;;;;;-146.25;89.23;52514.19;2088991;28;36389;-84
2023/01/19 01:09:42;;;;;;;17.35;11.75;;;;;;;-146.25;88.87;52502.03;2079715;28;43524;-84
2023/01/19 01:10:44;;;;;;;19.38;12.55;;;;;;;-146.25;88.61;52489.84;2072798;28;20891;-84
2023/01/19 01:11:46;;;;;;;15.07;11.85;;;;;;;-146.25;89.20;52477.69;2079910;28;37150;-84
2023/01/19 01:12:48;;;;;;;17.20;11.80;;;;;;;-146.25;88.91;52495.94;2088583;28;40205;-84
2023/01/19 01:13:54;;;;;;;17.73;11.88;;;;;;;-146.25;88.90;52461.47;2088724;28;37306;-83
2023/01/19 01:14:55;;;;;;;18.88;12.07;;;;;;;-146.25;89.31;52475.66;2079620;28;43903;-83
2023/01/19 01:15:57;;;;;;;17.67;12.07;;;;;;;-146.25;89.51;52532.44;2079922;28;20546;-84
2023/01/19 01:16:59;;;;;;;15.63;12.02;;;;;;;-146.25;89.40;52502.03;2087836;28;36551;-83
2023/01/19 01:18:01;;;;;;;18.20;12.13;;;;;;;-146.25;88.89;52467.56;2088500;28;38590;-83
2023/01/19 01:19:02;;;;;;;16.00;11.68;;;;;;;-146.25;88.97;52477.69;2088821;28;36684;-82
2023/01/19 01:20:07;;;;;;;17.88;12.35;;;;;;;-146.25;89.50;52487.81;2088161;28;40692;-82
2023/01/19 01:21:11;;;;;;;18.02;11.82;;;;;;;-146.25;89.22;52487.81;2088634;28;37689;-83
2023/01/19 01:22:13;;;;;;;15.18;11.90;;;;;;;-146.25;89.38;52497.97;2071686;28;39608;-83
2023/01/19 01:23:15;;;;;;;14.55;11.57;;;;;;;-146.25;89.35;52528.38;2072131;28;40112;-83
2023/01/19 01:24:19;;;;;;;18.90;12.20;;;;;;;-146.25;88.81;52485.81;2088514;28;38235;-84
2023/01/19 01:25:25;;;;;;;15.70;11.35;;;;;;;-146.25;89.20;52502.03;2089139;28;39838;-83
2023/01/19 01:26:29;;;;;;;15.20;12.02;;;;;;;-146.25;88.84;52493.91;2080242;28;20890;-82
2023/01/19 01:27:31;;;;;;;18.08;12.57;;;;;;;-146.25;88.50;52465.53;2080221;28;40591;-84
2023/01/19 01:28:32;;;;;;;17.90;12.50;;;;;;;-146.25;88.81;52522.28;2088353;28;39327;-83
2023/01/19 01:29:34;;;;;;;17.27;12.20;;;;;;;-146.25;89.00;52508.09;2088689;28;39007;-83
2023/01/19 01:30:39;;;;;;;16.75;12.25;;;;;;;-146.25;89.10;52512.16;2088910;28;40425;-83
2023/01/19 01:31:44;;;;;;;17.77;12.25;;;;;;;-146.25;89.19;52510.13;2079949;28;37551;-83
2023/01/19 01:32:45;;;;;;;13.80;11.55;;;;;;;-146.25;89.34;52510.13;2080352;28;30942;-83
2023/01/19 01:33:47;;;;;;;14.60;12.13;;;;;;;-146.25;89.41;52487.81;2087986;28;41697;-83
2023/01/19 01:34:49;;;;;;;17.02;12.07;;;;;;;-146.25;89.20;52473.63;2089123;28;20968;-83
2023/01/19 01:35:51;;;;;;;15.63;12.35;;;;;;;-146.25;89.45;52500.00;2088799;28;20133;-82
2023/01/19 01:36:53;;;;;;;15.88;11.93;;;;;;;-146.25;89.16;52469.56;2087702;28;39302;-82
2023/01/19 01:37:57;;;;;;;14.85;12.18;;;;;;;-146.25;89.79;52465.53;2088189;28;36035;-82
2023/01/19 01:39:02;;;;;;;15.52;12.35;;;;;;;-146.25;89.70;52465.53;2088089;28;41596;-82
2023/01/19 01:40:06;;;;;;;19.75;11.93;;;;;;;-146.25;89.07;52487.81;2088813;28;21950;-83
2023/01/19 01:41:08;;;;;;;18.65;12.00;;;;;;;-146.25;89.67;52514.19;2079610;28;20687;-83
2023/01/19 01:42:18;;;;;;;15.00;12.07;;;;;;;-146.25;89.49;52481.75;2080195;28;39110;-82
2023/01/19 01:43:20;;;;;;;16.27;11.68;;;;;;;-146.25;89.73;52506.06;2079572;28;36931;-83
2023/01/19 01:44:52;;;;;;;15.07;11.15;;;;;;;-146.25;89.62;52485.81;2080848;28;39443;-82
2023/01/19 01:45:54;;;;;;;14.18;11.00;;;;;;;-146.25;89.55;52556.75;2079165;28;43947;-83
2023/01/19 01:46:58;;;;;;;16.10;11.60;;;;;;;-146.25;89.66;52461.47;2079789;28;37105;-82
2023/01/19 01:48:29;;;;;;;17.30;11.70;;;;;;;-146.25;89.73;52461.47;2087495;28;40705;-82
2023/01/19 01:49:30;;;;;;;17.52;11.45;;;;;;;-146.25;89.88;52469.56;2088328;28;35099;-82
2023/01/19 01:50:37;;;;;;;16.42;12.23;;;;;;;-146.25;89.77;52502.03;2079266;28;40239;-82
2023/01/19 01:51:52;;;;;;;16.23;11.77;;;;;;;-146.25;90.05;52481.75;2072681;28;21440;-81
2023/01/19 01:53:01;;;;;;;14.48;11.90;;;;;;;-146.25;89.74;52487.81;2082369;28;39695;-82
2023/01/19 01:54:17;;;;;;;14.82;11.82;;;;;;;-146.25;90.34;52481.75;2088362;28;38118;-82
2023/01/19 01:55:21;;;;;;;18.48;12.20;;;;;;;-146.25;90.34;52489.84;2088531;28;37305;-82
2023/01/19 01:56:32;;;;;;;14.82;11.90;;;;;;;-146.25;90.22;52485.81;2088113;28;40873;-82
2023/01/19 01:57:40;;;;;;;14.85;11.57;;;;;;;-146.25;90.84;52475.66;2088137;28;39823;-83
2023/01/19 01:58:43;;;;;;;15.43;11.55;;;;;;;-146.25;90.36;52518.25;2079865;28;38323;-81
2023/01/19 01:59:48;;;;;;;14.73;11.73;;;;;;;-146.25;90.69;52483.78;2072299;28;21300;-81
2023/01/19 02:03:38;;;;;;;14.20;11.73;;;;;;;-146.25;90.40;52502.03;2080151;28;20163;-82
2023/01/19 02:04:47;;;;;;;14.55;12.23;;;;;;;-146.25;91.11;52461.47;2082399;28;39831;-81
2023/01/19 02:05:50;;;;;;;16.83;12.63;;;;;;;-146.25;91.01;52497.97;2088226;28;39941;-81
2023/01/19 02:13:52;;;;;;;16.10;12.38;;;;;;;-146.25;91.13;52485.81;2084976;28;40848;-81
2023/01/19 02:14:54;;;;;;;15.32;12.65;;;;;;;-146.25;90.99;52469.56;2087985;28;37517;-81
2023/01/19 02:16:01;;;;;;;16.77;12.75;;;;;;;-146.25;91.41;52471.59;2087528;28;41705;-81
2023/01/19 02:17:06;;;;;;;15.32;12.13;;;;;;;-146.25;91.33;52502.03;2080081;28;20034;-81
2023/01/19 02:18:07;;;;;;;14.75;12.32;;;;;;;-146.25;91.44;52487.81;2080954;28;38602;-81
2023/01/19 02:19:17;;;;;;;15.93;12.75;;;;;;;-146.25;91.72;52481.75;2088096;28;35834;-81
2023/01/19 02:20:25;;;;;;;17.40;13.25;;;;;;;-146.25;91.94;52481.75;2079946;28;20045;-81
2023/01/19 02:21:56;;;;;;;14.88;12.35;;;;;;;-146.25;92.11;52502.03;2081396;28;38968;-81
2023/01/19 02:23:04;;;;;;;13.60;11.48;;;;;;;-146.25;92.21;52500.00;2087323;28;40197;-81
2023/01/19 02:24:06;;;;;;;16.77;12.43;;;;;;;-146.25;91.99;52493.91;2079661;28;43683;-81
2023/01/19 02:25:08;;;;;;;15.85;12.52;;;;;;;-146.25;91.83;52516.22;2079405;28;37882;-81
2023/01/19 02:26:19;;;;;;;14.77;13.02;;;;;;;-146.25;92.16;52481.75;2088051;28;36717;-81
2023/01/19 02:27:21;;;;;;;15.15;13.50;;;;;;;-146.25;92.16;52485.81;2079391;28;41851;-81
2023/01/19 02:28:24;;;;;;;17.15;13.13;;;;;;;-146.25;92.64;52520.28;2081432;28;20049;-81
2023/01/19 02:29:27;;;;;;;16.13;13.05;;;;;;;-146.25;92.32;52479.72;2087433;28;36885;-81
2023/01/19 02:30:29;;;;;;;16.80;13.70;;;;;;;-146.25;92.46;52522.28;2088171;28;40555;-81
2023/01/19 02:31:34;;;;;;;14.77;13.07;;;;;;;-146.25;92.57;52461.47;2079063;28;35486;-81
2023/01/19 02:32:35;;;;;;;16.25;14.02;;;;;;;-146.25;92.21;52481.75;2079452;28;41820;-81
2023/01/19 02:33:37;;;;;;;16.25;13.77;;;;;;;-146.25;92.94;52502.03;2079328;28;38144;-81
2023/01/19 02:34:41;;;;;;;15.70;13.38;;;;;;;-146.25;92.62;52497.97;2079842;28;38731;-81
2023/01/19 02:35:44;;;;;;;18.20;14.30;;;;;;;-146.25;92.81;52502.03;2087727;28;38302;-81
2023/01/19 02:36:55;;;;;;;16.40;14.05;;;;;;;-146.25;92.40;52485.81;2079501;28;40522;-81
2023/01/19 02:37:57;;;;;;;15.77;14.05;;;;;;;-146.25;93.12;52477.69;2081647;28;37422;-80
2023/01/19 02:39:00;;;;;;;17.58;14.40;;;;;;;-146.25;93.11;52471.59;2079415;28;31486;-81
2023/01/19 02:40:07;;;;;;;17.52;14.27;;;;;;;-146.25;92.95;52506.06;2079824;28;35400;-80
2023/01/19 02:41:13;;;;;;;17.95;14.98;;;;;;;-146.25;93.21;52485.81;2078729;28;39708;-81
2023/01/19 02:42:27;;;;;;;18.70;15.88;;;;;;;-146.25;92.92;52502.03;2071751;28;42524;-80
2023/01/19 02:43:29;;;;;;;16.08;14.38;;;;;;;-146.25;93.15;52487.81;2073594;28;41365;-81
2023/01/19 02:44:35;;;;;;;18.58;15.27;;;;;;;-146.25;93.59;52489.84;2080808;28;41631;-80
2023/01/19 02:45:38;;;;;;;18.45;14.98;;;;;;;-146.25;93.64;52493.91;2087500;28;39554;-81
2023/01/19 02:46:42;;;;;;;20.15;15.38;;;;;;;-146.25;93.83;52504.03;2087838;28;38299;-80
2023/01/19 02:47:48;;;;;;;17.50;15.10;;;;;;;-146.25;93.72;52477.69;2087312;28;41264;-80
2023/01/19 02:48:50;;;;;;;18.17;15.27;;;;;;;-146.25;93.38;52506.06;2079461;28;33897;-80
2023/01/19 02:49:59;;;;;;;19.17;16.02;;;;;;;-146.25;93.77;52491.88;2079301;28;38806;-80
2023/01/19 02:51:21;;;;;;;17.07;15.27;;;;;;;-146.25;93.37;52473.63;2088185;28;39340;-80
2023/01/19 02:52:26;;;;;;;18.88;15.75;;;;;;;-146.25;94.10;52477.69;2079274;28;38746;-80
2023/01/19 02:53:31;;;;;;;17.67;15.05;;;;;;;-146.25;94.19;52477.69;2083247;28;20948;-80
2023/01/19 02:54:54;;;;;;;17.77;15.27;;;;;;;-146.25;93.97;52500.00;2087934;28;20039;-80
2023/01/19 02:56:02;;;;;;;17.52;15.25;;;;;;;-146.25;93.95;52500.00;2087525;28;37830;-80
2023/01/19 02:57:24;;;;;;;23.50;16.92;;;;;;;-146.25;93.55;52500.00;2079940;28;20142;-80
2023/01/19 02:58:48;;;;;;;17.92;15.35;;;;;;;-146.25;94.25;52493.91;2082616;28;43821;-80
2023/01/19 03:00:24;;;;;;;17.83;15.63;;;;;;;-146.25;93.78;52473.63;2087924;28;40112;-80
2023/01/19 03:01:55;;;;;;;18.15;14.95;;;;;;;-146.25;93.87;52435.09;2086998;28;39275;-80
2023/01/19 03:03:41;;;;;;;18.38;16.00;;;;;;;-146.25;93.94;52493.91;2066803;28;42179;-80
2023/01/19 03:05:13;;;;;;;19.27;15.35;;;;;;;-146.25;94.04;52469.56;2070795;28;37692;-80
2023/01/19 03:06:33;;;;;;;17.40;14.57;;;;;;;-146.25;94.56;52520.28;2079227;28;21709;-80
2023/01/19 03:08:09;;;;;;;20.35;16.48;;;;;;;-146.25;94.57;52522.28;2079020;28;39554;-78
2023/01/19 03:09:24;;;;;;;19.30;15.70;;;;;;;-146.25;95.29;52481.75;2071091;28;39747;-80
2023/01/19 03:10:44;;;;;;;18.70;15.77;;;;;;;-146.25;95.33;52481.75;2077586;28;26817;-80
2023/01/19 03:11:59;;;;;;;23.65;17.33;;;;;;;-146.25;95.22;52459.44;2079875;28;40386;-80
2023/01/19 03:13:17;;;;;;;18.35;15.88;;;;;;;-146.25;95.53;52500.00;2078612;28;38913;-80
2023/01/19 03:14:26;;;;;;;20.20;16.65;;;;;;;-146.25;95.42;52471.59;2070838;28;42135;-80
2023/01/19 03:15:43;;;;;;;21.75;17.65;;;;;;;-146.25;95.82;52455.38;2074399;28;20034;-80
2023/01/19 03:16:58;;;;;;;19.38;15.93;;;;;;;-146.25;96.02;52548.66;2070262;28;41947;-80
2023/01/19 03:18:05;;;;;;;20.50;17.08;;;;;;;-146.25;95.81;52493.91;2075827;28;20081;-80
2023/01/19 03:19:20;;;;;;;20.13;16.38;;;;;;;-146.25;96.20;52485.81;2079125;28;40480;-80
2023/01/19 03:20:24;;;;;;;21.33;16.92;;;;;;;-146.25;96.40;52510.13;2079311;28;41159;-79
2023/01/19 03:21:28;;;;;;;23.52;18.08;;;;;;;-146.25;96.47;52514.19;2070239;28;37150;-80
2023/01/19 03:22:31;;;;;;;19.42;16.23;;;;;;;-146.25;96.58;52518.25;2071619;28;41910;-80
2023/01/19 03:23:36;;;;;;;20.55;17.58;;;;;;;-146.25;96.51;52457.41;2070457;28;40832;-80
2023/01/19 03:24:44;;;;;;;19.52;17.30;;;;;;;-146.25;96.05;52502.03;2071722;28;40445;-80
2023/01/19 03:25:48;;;;;;;19.25;16.42;;;;;;;-146.25;96.41;52489.84;2079707;28;20414;-80
2023/01/19 03:27:07;;;;;;;20.02;16.70;;;;;;;-146.25;96.98;52489.84;2079353;28;37989;-80
2023/01/19 03:28:12;;;;;;;20.77;16.60;;;;;;;-146.25;96.36;52497.97;2079964;28;20046;-80
2023/01/19 03:29:17;;;;;;;19.50;17.35;;;;;;;-146.25;96.42;52508.09;2070306;28;38828;-80
2023/01/19 03:30:31;;;;;;;21.10;17.13;;;;;;;-146.25;96.35;52530.41;2063933;28;40377;-80
2023/01/19 03:31:39;;;;;;;19.38;16.05;;;;;;;-146.25;96.90;52528.38;2070270;28;39125;-80
2023/01/19 03:32:55;;;;;;;20.25;16.48;;;;;;;-146.25;96.77;52487.81;2072021;28;39513;-80
2023/01/19 03:34:04;;;;;;;19.00;16.38;;;;;;;-146.25;96.52;52485.81;2070824;28;38228;-79
2023/01/19 03:35:13;;;;;;;19.20;16.27;;;;;;;-146.25;96.34;52483.78;2075111;28;20898;-80
2023/01/19 03:36:30;;;;;;;19.83;16.67;;;;;;;-146.25;96.76;52489.84;2078767;28;38728;-80
2023/01/19 03:37:36;;;;;;;19.98;16.70;;;;;;;-146.25;96.05;52477.69;2079078;28;26991;-80
2023/01/19 03:38:40;;;;;;;19.13;15.32;;;;;;;-146.25;96.62;52489.84;2079084;28;42478;-80
2023/01/19 03:39:43;;;;;;;18.55;15.77;;;;;;;-146.25;96.66;52473.63;2078379;28;41713;-80
2023/01/19 03:40:46;;;;;;;18.90;16.48;;;;;;;-146.25;96.45;52518.25;2078411;28;38341;-77
2023/01/19 03:41:52;;;;;;;21.23;17.52;;;;;;;-146.25;96.66;52512.16;2070622;28;36790;-79
2023/01/19 03:42:54;;;;;;;19.42;16.10;;;;;;;-146.25;96.26;52487.81;2072006;28;38217;-79
2023/01/19 03:43:57;;;;;;;19.13;16.83;;;;;;;-146.25;96.35;52528.38;2078668;28;40653;-80
2023/01/19 03:45:00;;;;;;;20.08;17.05;;;;;;;-146.25;96.86;52528.38;2078791;28;41570;-79
2023/01/19 03:46:04;;;;;;;20.10;17.10;;;;;;;-146.25;96.15;52502.03;2078878;28;39206;-80
2023/01/19 03:47:10;;;;;;;20.25;16.48;;;;;;;-146.25;96.58;52502.03;2078356;28;39849;-80
2023/01/19 03:48:12;;;;;;;19.73;16.27;;;;;;;-146.25;96.34;52502.03;2082538;28;36074;-80
2023/01/19 03:49:16;;;;;;;19.73;16.17;;;;;;;-146.25;96.74;52493.91;2087770;28;20045;-80
2023/01/19 03:50:26;;;;;;;19.85;17.10;;;;;;;-146.25;96.44;52479.72;2078432;28;41270;-79
2023/01/19 03:51:28;;;;;;;19.00;16.10;;;;;;;-146.25;96.45;52471.59;2072920;28;20031;-80
2023/01/19 03:52:32;;;;;;;19.92;17.15;;;;;;;-146.25;96.61;52495.94;2079668;28;36923;-80
2023/01/19 03:53:36;;;;;;;21.08;16.80;;;;;;;-146.25;96.53;52487.81;2078951;28;41965;-80
2023/01/19 03:54:41;;;;;;;19.30;16.95;;;;;;;-146.25;96.90;52483.78;2079400;28;37395;-79
2023/01/19 03:55:47;;;;;;;20.77;16.48;;;;;;;-146.25;96.33;52493.91;2087727;28;40157;-79
2023/01/19 03:56:48;;;;;;;18.73;16.58;;;;;;;-146.25;96.13;52469.56;2087969;28;25911;-79
2023/01/19 03:57:50;;;;;;;19.42;16.48;;;;;;;-146.25;96.22;52516.22;2088672;28;20641;-80
2023/01/19 03:58:52;;;;;;;21.20;17.45;;;;;;;-146.25;96.24;52500.00;2087617;28;36344;-80
2023/01/19 03:59:56;;;;;;;21.15;17.67;;;;;;;-146.25;96.71;52514.19;2087225;28;38513;-80
2023/01/19 04:00:58;;;;;;;20.27;17.20;;;;;;;-146.25;96.64;52497.97;2087961;28;20158;-79
2023/01/19 04:02:02;;;;;;;20.33;17.27;;;;;;;-146.25;96.81;52479.72;2087623;28;20045;-79
2023/01/19 04:03:05;;;;;;;21.25;17.98;;;;;;;-146.25;96.16;52506.06;2093098;28;40333;-78
2023/01/19 04:04:09;;;;;;;20.35;17.52;;;;;;;-146.25;96.51;52489.84;2087644;28;20907;-79
2023/01/19 04:05:11;;;;;;;20.27;17.48;;;;;;;-146.25;96.20;52481.75;2079199;28;41359;-79
2023/01/19 04:06:15;;;;;;;21.20;16.92;;;;;;;-146.25;96.48;52489.84;2087874;28;36701;-79
2023/01/19 04:07:18;;;;;;;20.52;17.02;;;;;;;-146.25;96.96;52542.56;2078399;28;41289;-79
2023/01/19 04:08:20;;;;;;;20.25;17.45;;;;;;;-146.25;96.66;52489.84;2078499;28;40568;-79
2023/01/19 04:09:22;;;;;;;20.05;17.40;;;;;;;-146.25;96.46;52459.44;2088905;28;20042;-79
2023/01/19 04:10:26;;;;;;;22.30;17.50;;;;;;;-146.25;96.35;52465.53;2078605;28;40666;-79
2023/01/19 04:11:30;;;;;;;20.60;17.70;;;;;;;-146.25;96.91;52502.03;2078735;28;37063;-79
2023/01/19 04:12:32;;;;;;;21.20;17.52;;;;;;;-146.25;96.75;52497.97;2087899;28;20163;-79
2023/01/19 04:13:34;;;;;;;19.23;16.63;;;;;;;-146.25;96.87;52500.00;2087176;28;43520;-79
2023/01/19 04:14:36;;;;;;;19.83;16.85;;;;;;;-146.25;96.76;52506.06;2087849;28;36523;-79
2023/01/19 04:15:38;;;;;;;19.55;16.95;;;;;;;-146.25;96.63;52500.00;2087733;28;34180;-78
2023/01/19 04:16:39;;;;;;;19.80;17.55;;;;;;;-146.25;97.30;52467.56;2087999;28;40288;-79
2023/01/19 04:17:41;;;;;;;21.15;18.25;;;;;;;-146.25;96.44;52528.38;2087562;28;35878;-79
2023/01/19 04:18:46;;;;;;;22.05;18.08;;;;;;;-146.25;96.96;52479.72;2087639;28;39058;-79
2023/01/19 04:19:52;;;;;;;21.27;18.25;;;;;;;-146.25;97.32;52497.97;2078460;28;40236;-79
2023/01/19 04:20:54;;;;;;;20.92;17.10;;;;;;;-146.25;96.66;52514.19;2080597;28;27254;-79
2023/01/19 04:21:55;;;;;;;21.13;18.42;;;;;;;-146.25;97.45;52489.84;2087229;28;38511;-79
2023/01/19 04:23:01;;;;;;;21.13;17.27;;;;;;;-146.25;96.97;52481.75;2087796;28;39329;-79
2023/01/19 04:24:04;;;;;;;21.48;17.67;;;;;;;-146.25;97.06;52463.50;2087291;28;41971;-79
2023/01/19 04:25:07;;;;;;;22.92;18.58;;;;;;;-146.25;97.92;52479.72;2071006;28;20054;-79
2023/01/19 04:26:09;;;;;;;21.77;18.35;;;;;;;-146.25;97.58;52473.63;2070578;28;42209;-79
2023/01/19 04:27:10;;;;;;;21.38;18.25;;;;;;;-146.25;97.06;52495.94;2086965;28;37593;-79
2023/01/19 04:28:12;;;;;;;22.42;18.67;;;;;;;-146.25;97.63;52469.56;2086879;28;38266;-79
2023/01/19 04:29:14;;;;;;;20.75;18.00;;;;;;;-146.25;97.76;52479.72;2078818;28;40596;-78
2023/01/19 04:30:16;;;;;;;26.10;20.13;;;;;;;-146.25;98.24;52477.69;2078816;28;35931;-79
2023/01/19 04:31:18;;;;;;;24.27;19.05;;;;;;;-146.25;98.19;52516.22;2087917;28;33257;-79
2023/01/19 04:32:20;;;;;;;25.75;19.75;;;;;;;-146.25;97.94;52477.69;2078087;28;45536;-78
2023/01/19 04:33:22;;;;;;;23.90;19.58;;;;;;;-146.25;97.60;52522.28;2079058;28;35651;-79
2023/01/19 04:34:24;;;;;;;24.42;20.20;;;;;;;-146.25;98.48;52510.13;2078437;28;41140;-78
2023/01/19 04:35:25;;;;;;;24.42;20.15;;;;;;;-146.25;98.28;52453.34;2079399;28;36998;-78
2023/01/19 04:36:27;;;;;;;23.45;19.00;;;;;;;-146.25;98.50;52445.25;2087450;28;20121;-79
2023/01/19 04:37:29;;;;;;;24.85;20.05;;;;;;;-146.25;98.50;52502.03;2087708;28;36719;-78
2023/01/19 04:38:30;;;;;;;26.77;20.73;;;;;;;-146.25;98.27;52487.81;2087265;28;40184;-79
2023/01/19 04:39:32;;;;;;;25.70;21.23;;;;;;;-146.25;98.76;52508.09;2087760;28;39711;-79
2023/01/19 04:40:34;;;;;;;25.40;20.60;;;;;;;-146.25;98.45;52453.34;2087000;28;41054;-79
2023/01/19 04:41:38;;;;;;;26.13;21.00;;;;;;;-146.25;99.13;52487.81;2087203;28;36557;-79
2023/01/19 04:42:44;;;;;;;26.52;21.70;;;;;;;-146.25;99.16;52502.03;2087248;28;38250;-79
2023/01/19 04:43:46;;;;;;;25.92;19.52;;;;;;;-146.25;99.42;52497.97;2087353;28;39120;-79
2023/01/19 04:44:48;;;;;;;28.77;22.30;;;;;;;-146.25;99.13;52500.00;2087170;28;42962;-80
2023/01/19 04:45:50;;;;;;;27.50;21.95;;;;;;;-146.25;99.61;52475.66;2088527;28;20057;-80
2023/01/19 04:46:52;;;;;;;30.35;22.52;;;;;;;-146.25;99.84;52528.38;2087209;28;38066;-79
2023/01/19 04:47:54;;;;;;;31.05;23.17;;;;;;;-146.25;99.08;52477.69;2086933;28;39659;-79
2023/01/19 04:48:56;;;;;;;30.15;23.65;;;;;;;-146.25;100.00;52493.91;2086742;28;34719;-80
2023/01/19 04:49:57;;;;;;;28.20;23.25;;;;;;;-146.25;99.70;52483.78;2087764;28;37181;-80
2023/01/19 04:50:59;;;;;;;30.30;23.52;;;;;;;-146.25;99.92;52516.22;2087584;28;27030;-80
2023/01/19 04:52:01;;;;;;;29.95;23.63;;;;;;;-146.25;99.51;52504.03;2078599;28;38695;-79
2023/01/19 04:53:05;;;;;;;29.98;23.65;;;;;;;-146.25;99.86;52497.97;2081025;28;20232;-80
2023/01/19 04:54:10;;;;;;;27.73;22.65;;;;;;;-146.25;99.95;52522.28;2089048;28;38920;-80
2023/01/19 04:55:11;;;;;;;31.08;23.63;;;;;;;-146.25;100.00;52516.22;2088429;28;38111;-79
2023/01/19 04:56:13;;;;;;;29.52;23.80;;;;;;;-146.25;100.00;52514.19;2088231;28;36031;-79
2023/01/19 04:57:15;;;;;;;31.25;24.75;;;;;;;-146.25;100.00;52491.88;2087807;28;39581;-79
2023/01/19 04:58:16;;;;;;;31.65;23.73;;;;;;;-146.25;100.00;52493.91;2088891;28;38018;-80
2023/01/19 04:59:19;;;;;;;31.90;25.50;;;;;;;-146.25;100.00;52502.03;2088807;28;36248;-80
2023/01/19 05:00:23;;;;;;;32.55;24.98;;;;;;;-146.25;100.00;52495.94;2090531;28;20119;-80
2023/01/19 05:01:26;;;;;;;32.15;25.00;;;;;;;-146.25;100.00;52477.69;2079805;28;20990;-79
2023/01/19 05:02:27;;;;;;;32.10;24.63;;;;;;;-146.25;100.00;52518.25;2080127;28;41767;-79
2023/01/19 05:03:29;;;;;;;31.88;23.60;;;;;;;-146.25;100.00;52487.81;2088450;28;36716;-79
2023/01/19 05:04:31;;;;;;;30.60;24.00;;;;;;;-146.25;100.00;52500.00;2088123;28;38149;-80